Time;durP1;ratioP1;P1;durP2;ratioP2;P2;SDS_P1;SDS_P2;PMS_P1;PMS_P2;Temp;Humidity;BMP_temperature;BMP_pressure;BME280_temperature;BME280_humidity;BME280_pressure;Samples;Min_cycle;Max_cycle;Signal;HPM_P1;HPM_P2
2022/09/14 00:00:47;;;;;;;8.10;2.72;;;13.50;99.90;;;;;;5084113;28;20478;-69
2022/09/14 00:03:14;;;;;;;6.68;2.50;;;13.40;99.90;;;;;;5086679;28;20044;-69
2022/09/14 00:05:40;;;;;;;6.50;2.45;;;13.50;99.90;;;;;;5089061;28;20047;-70
2022/09/14 00:08:06;;;;;;;7.22;2.40;;;13.50;99.90;;;;;;5071831;28;20728;-69
2022/09/14 00:10:32;;;;;;;8.60;2.53;;;13.50;99.90;;;;;;5082970;28;20072;-69
2022/09/14 00:12:59;;;;;;;9.18;2.58;;;13.50;99.90;;;;;;5085171;28;20090;-69
2022/09/14 00:15:25;;;;;;;8.77;2.38;;;13.60;99.90;;;;;;5086026;28;20621;-69
2022/09/14 00:17:51;;;;;;;4.78;2.13;;;13.60;99.90;;;;;;5069798;28;20426;-69
2022/09/14 00:20:16;;;;;;;5.47;1.83;;;13.60;99.90;;;;;;5083003;28;20047;-69
2022/09/14 00:22:42;;;;;;;7.80;2.33;;;13.60;99.90;;;;;;5088431;28;20131;-69
2022/09/14 00:25:08;;;;;;;10.13;2.45;;;13.50;99.90;;;;;;5086511;28;20036;-69
2022/09/14 00:27:34;;;;;;;6.65;2.28;;;13.60;99.90;;;;;;5071062;28;20056;-68
2022/09/14 00:30:00;;;;;;;8.65;2.42;;;13.60;99.90;;;;;;5081363;28;20032;-69
2022/09/14 00:32:25;;;;;;;6.47;2.13;;;13.60;99.90;;;;;;5088147;28;20381;-69
2022/09/14 00:34:51;;;;;;;5.45;2.03;;;13.60;99.90;;;;;;5086763;28;20380;-69
2022/09/14 00:37:16;;;;;;;5.00;1.98;;;13.60;99.90;;;;;;5071225;28;20055;-69
2022/09/14 00:39:42;;;;;;;5.75;1.80;;;13.60;99.90;;;;;;5084790;28;20564;-69
2022/09/14 00:42:15;;;;;;;8.20;2.00;;;13.60;99.90;;;;;;5078923;28;20055;-68
2022/09/14 00:44:40;;;;;;;6.43;1.95;;;13.60;99.90;;;;;;5085609;28;20300;-69
2022/09/14 00:47:06;;;;;;;9.43;2.38;;;13.60;99.90;;;;;;5070594;28;20209;-68
2022/09/14 00:49:36;;;;;;;6.38;2.17;;;13.50;99.90;;;;;;5085086;28;20093;-70
2022/09/14 00:52:07;;;;;;;4.82;1.90;;;13.50;99.90;;;;;;5086005;28;20048;-70
2022/09/14 00:54:47;;;;;;;8.45;2.22;;;13.70;99.90;;;;;;5085728;28;20127;-69
2022/09/14 00:57:14;;;;;;;6.78;2.25;;;13.50;99.90;;;;;;5068724;28;20073;-69
2022/09/14 00:59:41;;;;;;;6.82;2.13;;;13.50;99.90;;;;;;5083287;28;20059;-69
2022/09/14 01:02:09;;;;;;;6.72;2.22;;;13.50;99.90;;;;;;5085469;28;20074;-68
2022/09/14 01:04:36;;;;;;;8.13;2.30;;;13.50;99.90;;;;;;5084138;28;20048;-69
2022/09/14 01:07:07;;;;;;;6.78;2.30;;;13.50;99.90;;;;;;5072210;28;20423;-69
2022/09/14 01:09:42;;;;;;;8.68;2.30;;;13.60;99.90;;;;;;5082727;28;20499;-69
2022/09/14 01:12:19;;;;;;;8.02;2.38;;;13.50;99.90;;;;;;5080215;28;20197;-68
2022/09/14 01:14:45;;;;;;;8.10;2.60;;;13.60;99.90;;;;;;5084394;28;20056;-69
2022/09/14 01:17:48;;;;;;;6.45;2.28;;;13.60;99.90;;;;;;5069078;28;20053;-68
2022/09/14 01:20:50;;;;;;;8.48;2.42;;;13.60;99.90;;;;;;5080924;28;20047;-69
2022/09/14 01:23:26;;;;;;;8.43;2.80;;;13.60;99.90;;;;;;5084708;28;20086;-69
2022/09/14 01:26:10;;;;;;;6.13;2.35;;;13.60;99.90;;;;;;5082751;28;20058;-69
2022/09/14 01:28:53;;;;;;;7.65;2.75;;;13.60;99.90;;;;;;5075786;28;20055;-69
2022/09/14 01:31:41;;;;;;;9.45;2.50;;;13.60;99.90;;;;;;5082247;28;20052;-69
2022/09/14 01:34:12;;;;;;;5.50;1.98;;;13.70;99.90;;;;;;5080320;28;20043;-69
2022/09/14 01:36:44;;;;;;;7.30;2.33;;;13.70;99.90;;;;;;5070928;28;20098;-69
2022/09/14 01:39:10;;;;;;;;;;;13.70;99.90;;;;;;5083273;28;20105;-69
2022/09/14 01:41:37;;;;;;;4.78;1.98;;;13.80;99.90;;;;;;5080030;28;19931;-70
2022/09/14 01:44:15;;;;;;;8.13;2.10;;;13.80;99.90;;;;;;5086350;28;20044;-69
2022/09/14 01:46:46;;;;;;;8.30;2.50;;;13.80;99.90;;;;;;5068985;28;20118;-70
2022/09/14 01:49:24;;;;;;;;;;;13.90;99.90;;;;;;5084588;28;20793;-70
2022/09/14 01:51:57;;;;;;;9.43;2.53;;;13.90;99.90;;;;;;5076574;28;19923;-69
2022/09/14 01:54:37;;;;;;;12.88;2.60;;;13.90;99.90;;;;;;5085817;28;20117;-69
2022/09/14 01:57:13;;;;;;;9.13;2.53;;;13.90;99.90;;;;;;5070692;28;20079;-70
2022/09/14 01:59:44;;;;;;;7.78;2.17;;;13.90;99.90;;;;;;5080791;28;20060;-70
2022/09/14 02:02:21;;;;;;;5.57;2.30;;;14.00;99.90;;;;;;5085011;28;20047;-68
2022/09/14 02:05:08;;;;;;;7.45;2.25;;;13.90;99.90;;;;;;5081641;28;20044;-69
2022/09/14 02:07:35;;;;;;;6.00;2.42;;;13.90;99.90;;;;;;5068044;28;20051;-68
2022/09/14 02:10:02;;;;;;;8.82;2.67;;;14.00;99.90;;;;;;5087649;28;20044;-69
2022/09/14 02:12:28;;;;;;;5.90;2.35;;;14.00;99.90;;;;;;5081581;28;20501;-69
2022/09/14 02:14:54;;;;;;;10.15;2.35;;;13.90;99.90;;;;;;5083661;28;20040;-69
2022/09/14 02:17:20;;;;;;;5.55;2.60;;;13.90;99.90;;;;;;5068260;28;20454;-69
2022/09/14 02:19:55;;;;;;;8.35;2.75;;;13.90;99.90;;;;;;5084055;28;20040;-68
2022/09/14 02:22:21;;;;;;;9.73;3.13;;;13.90;99.90;;;;;;5080429;28;21559;-68
2022/09/14 02:24:47;;;;;;;6.45;2.70;;;13.90;99.90;;;;;;5085135;28;20044;-69
2022/09/14 02:27:14;;;;;;;7.22;2.67;;;13.90;99.90;;;;;;5068461;28;20036;-69
2022/09/14 02:29:39;;;;;;;8.40;3.13;;;13.90;99.90;;;;;;5083799;28;20168;-69
2022/09/14 02:32:29;;;;;;;7.93;2.83;;;13.90;99.90;;;;;;5078630;28;20040;-69
2022/09/14 02:35:36;;;;;;;7.60;2.70;;;13.90;99.90;;;;;;5082923;28;20055;-69
2022/09/14 02:38:45;;;;;;;7.75;2.92;;;13.90;99.90;;;;;;5050492;28;20142;-69
2022/09/14 02:41:27;;;;;;;6.45;2.80;;;13.90;99.90;;;;;;5063522;28;20044;-69
2022/09/14 02:44:34;;;;;;;6.13;2.80;;;13.90;99.90;;;;;;5062225;28;20049;-70
2022/09/14 02:47:18;;;;;;;9.68;2.85;;;13.80;99.90;;;;;;5048523;28;20037;-70
2022/09/14 02:49:57;;;;;;;6.63;2.75;;;13.90;99.90;;;;;;5057245;28;20049;-69
2022/09/14 02:52:28;;;;;;;7.45;2.83;;;13.90;99.90;;;;;;5065862;28;20082;-69
2022/09/14 02:55:16;;;;;;;7.82;3.00;;;14.00;99.90;;;;;;5064431;28;20045;-70
2022/09/14 02:58:03;;;;;;;7.45;2.70;;;14.00;99.90;;;;;;5043773;28;20117;-69
2022/09/14 03:00:31;;;;;;;6.45;2.65;;;14.00;99.90;;;;;;5060442;28;20415;-69
2022/09/14 03:02:57;;;;;;;9.18;2.70;;;14.00;99.90;;;;;;5063769;28;20045;-69
2022/09/14 03:05:23;;;;;;;8.30;3.03;;;14.00;99.90;;;;;;5065954;28;20139;-69
2022/09/14 03:07:48;;;;;;;6.28;2.88;;;14.00;99.90;;;;;;5027384;28;20131;-70
2022/09/14 03:10:14;;;;;;;7.38;3.22;;;14.00;99.90;;;;;;5065012;28;20079;-69
2022/09/14 03:12:40;;;;;;;8.70;3.40;;;14.00;99.90;;;;;;5058329;28;20440;-69
2022/09/14 03:15:06;;;;;;;5.35;2.67;;;13.90;99.90;;;;;;5062012;28;20482;-69
2022/09/14 03:17:32;;;;;;;8.77;3.00;;;13.90;99.90;;;;;;5047672;28;20062;-69
2022/09/14 03:19:58;;;;;;;6.07;3.22;;;13.90;99.90;;;;;;5064921;28;20123;-69
2022/09/14 03:22:23;;;;;;;6.28;2.83;;;13.90;99.90;;;;;;5065720;28;20127;-69
2022/09/14 03:24:49;;;;;;;10.88;3.35;;;13.90;99.90;;;;;;5065502;28;20043;-69
2022/09/14 03:27:16;;;;;;;7.82;3.28;;;13.90;99.90;;;;;;5047520;28;20036;-68
2022/09/14 03:29:42;;;;;;;8.85;3.58;;;14.00;99.90;;;;;;5062491;28;20045;-69
2022/09/14 03:32:09;;;;;;;6.22;3.30;;;13.90;99.90;;;;;;5062219;28;20123;-70
2022/09/14 03:34:35;;;;;;;6.55;3.05;;;13.90;99.90;;;;;;5063019;28;20049;-69
2022/09/14 03:37:01;;;;;;;7.75;3.17;;;13.90;99.90;;;;;;5048949;28;20089;-70
2022/09/14 03:39:27;;;;;;;5.80;3.20;;;13.90;99.90;;;;;;5066712;28;20091;-70
2022/09/14 03:41:53;;;;;;;8.57;3.45;;;13.80;99.90;;;;;;5082417;28;20044;-70
2022/09/14 03:44:19;;;;;;;7.63;3.33;;;13.80;99.90;;;;;;5082038;28;20044;-70
2022/09/14 03:46:45;;;;;;;9.20;3.60;;;13.80;99.90;;;;;;5067557;28;20446;-70
2022/09/14 03:49:10;;;;;;;8.30;3.42;;;13.90;99.90;;;;;;5080995;28;20040;-70
2022/09/14 03:51:36;;;;;;;6.55;3.75;;;13.90;99.90;;;;;;5083631;28;20040;-70
2022/09/14 03:54:02;;;;;;;6.63;3.58;;;13.90;99.90;;;;;;5084986;28;20559;-70
2022/09/14 03:56:27;;;;;;;5.60;3.00;;;13.90;99.90;;;;;;5070198;28;20044;-70
2022/09/14 03:58:53;;;;;;;9.52;3.42;;;13.90;99.90;;;;;;5079897;28;20435;-70
2022/09/14 04:01:21;;;;;;;9.73;3.35;;;13.90;99.90;;;;;;5083369;28;20121;-70
2022/09/14 04:03:47;;;;;;;6.38;3.20;;;13.90;99.90;;;;;;5084708;28;20043;-70
2022/09/14 04:06:14;;;;;;;8.23;3.55;;;13.90;99.90;;;;;;5076186;28;20101;-70
2022/09/14 04:08:41;;;;;;;7.55;3.13;;;13.90;99.90;;;;;;5078434;28;20564;-70
2022/09/14 04:11:07;;;;;;;5.85;3.28;;;14.00;99.90;;;;;;5086267;28;20093;-69
2022/09/14 04:13:33;;;;;;;9.77;3.38;;;13.90;99.90;;;;;;5084182;28;20044;-70
2022/09/14 04:15:59;;;;;;;6.70;3.28;;;13.90;99.90;;;;;;5083922;28;20058;-70
2022/09/14 04:18:26;;;;;;;7.15;3.55;;;13.90;99.90;;;;;;5070604;28;20644;-70
2022/09/14 04:21:00;;;;;;;6.95;3.40;;;13.90;99.90;;;;;;5087107;28;20101;-69
2022/09/14 04:23:27;;;;;;;7.13;3.63;;;13.90;99.90;;;;;;5085256;28;20127;-70
2022/09/14 04:25:53;;;;;;;5.00;3.22;;;13.90;99.90;;;;;;5087638;28;20442;-69
2022/09/14 04:28:19;;;;;;;7.25;3.20;;;13.80;99.90;;;;;;5067717;28;20044;-70
2022/09/14 04:30:53;;;;;;;5.22;2.65;;;13.90;99.90;;;;;;5082294;28;20533;-69
2022/09/14 04:33:19;;;;;;;7.55;3.55;;;13.90;99.90;;;;;;5086327;28;20376;-69
2022/09/14 04:35:45;;;;;;;5.75;3.25;;;13.90;99.90;;;;;;5086430;28;20055;-70
2022/09/14 04:38:10;;;;;;;5.22;3.28;;;13.80;99.90;;;;;;5069417;28;20036;-70
2022/09/14 04:40:40;;;;;;;7.10;3.42;;;13.90;99.90;;;;;;5084418;28;20109;-69
2022/09/14 04:43:05;;;;;;;6.43;3.35;;;13.90;99.90;;;;;;5086953;28;20048;-69
2022/09/14 04:45:31;;;;;;;7.20;3.72;;;13.80;99.90;;;;;;5086338;28;20117;-70
2022/09/14 04:47:57;;;;;;;10.40;3.58;;;13.90;99.90;;;;;;5067048;28;20046;-69
2022/09/14 04:50:22;;;;;;;6.80;3.22;;;13.90;99.90;;;;;;5053310;28;20048;-70
2022/09/14 04:52:48;;;;;;;6.40;3.63;;;13.80;99.90;;;;;;5087392;28;20044;-70
2022/09/14 04:55:14;;;;;;;6.75;3.55;;;13.90;99.90;;;;;;5084911;28;20044;-70
2022/09/14 04:57:39;;;;;;;8.40;3.53;;;13.80;99.90;;;;;;5068961;28;20127;-70
2022/09/14 05:00:05;;;;;;;6.97;3.38;;;13.80;99.90;;;;;;5083012;28;20494;-70
2022/09/14 05:02:31;;;;;;;6.10;3.75;;;13.90;99.90;;;;;;5085208;28;20058;-69
2022/09/14 05:04:57;;;;;;;9.00;3.65;;;13.80;99.90;;;;;;5086005;28;20037;-69
2022/09/14 05:07:23;;;;;;;8.15;3.50;;;13.90;99.90;;;;;;5069200;28;20209;-69
2022/09/14 05:09:49;;;;;;;11.90;4.15;;;13.90;99.90;;;;;;5080496;28;20139;-69
2022/09/14 05:12:14;;;;;;;6.07;3.50;;;13.80;99.90;;;;;;5084302;28;20040;-69
2022/09/14 05:14:40;;;;;;;8.82;3.13;;;13.90;99.90;;;;;;5070478;28;20052;-70
2022/09/14 05:17:05;;;;;;;9.68;3.60;;;13.90;99.90;;;;;;5064121;28;20051;-69
2022/09/14 05:19:31;;;;;;;5.82;3.30;;;13.80;99.90;;;;;;5085045;28;20059;-70
2022/09/14 05:21:57;;;;;;;4.85;2.97;;;13.90;99.90;;;;;;5082481;28;20056;-70
2022/09/14 05:24:22;;;;;;;3.97;2.80;;;13.80;99.90;;;;;;5084266;28;20044;-70
2022/09/14 05:26:51;;;;;;;7.18;3.03;;;13.90;99.90;;;;;;5069382;28;20048;-70
2022/09/14 05:29:18;;;;;;;6.90;2.65;;;13.90;99.90;;;;;;5084312;28;20063;-71
2022/09/14 05:31:44;;;;;;;8.23;3.03;;;13.90;99.90;;;;;;5085427;28;20435;-70
2022/09/14 05:34:11;;;;;;;4.88;2.90;;;13.90;99.90;;;;;;5084777;28;20048;-71
2022/09/14 05:36:37;;;;;;;8.18;2.67;;;13.90;99.90;;;;;;5067805;28;20056;-70
2022/09/14 05:39:04;;;;;;;6.43;2.83;;;14.00;99.90;;;;;;5080065;28;20043;-70
2022/09/14 05:41:30;;;;;;;5.55;2.50;;;14.00;99.90;;;;;;5086170;28;20507;-70
2022/09/14 05:43:57;;;;;;;5.65;2.47;;;14.00;99.90;;;;;;5084787;28;20094;-71
2022/09/14 05:46:23;;;;;;;7.72;2.80;;;14.00;99.90;;;;;;5067284;28;20109;-71
2022/09/14 05:48:50;;;;;;;5.30;2.60;;;14.00;99.90;;;;;;5079911;28;20498;-69
2022/09/14 05:51:26;;;;;;;6.18;2.80;;;14.00;99.90;;;;;;5087463;28;20051;-70
2022/09/14 05:53:57;;;;;;;8.38;2.63;;;14.00;99.90;;;;;;5086132;28;20380;-71
2022/09/14 05:56:25;;;;;;;7.00;2.75;;;14.00;99.90;;;;;;5071856;28;20040;-71
2022/09/14 05:58:51;;;;;;;6.65;2.70;;;14.00;99.90;;;;;;5075505;28;20131;-71
2022/09/14 06:01:22;;;;;;;7.97;3.20;;;14.10;99.90;;;;;;5083753;28;20127;-71
2022/09/14 06:03:48;;;;;;;;;;;14.10;99.90;;;;;;5081483;28;20054;-70
2022/09/14 06:06:16;;;;;;;7.60;2.45;;;14.10;99.90;;;;;;5072131;28;19930;-71
2022/09/14 06:08:43;;;;;;;8.18;2.50;;;14.10;99.90;;;;;;5078645;28;20048;-71
2022/09/14 06:11:15;;;;;;;3.38;2.22;;;14.20;99.90;;;;;;5082181;28;20044;-71
2022/09/14 06:13:41;;;;;;;5.07;2.45;;;14.20;99.90;;;;;;5078979;28;20059;-70
2022/09/14 06:16:13;;;;;;;4.93;2.10;;;14.30;99.90;;;;;;5078482;28;20319;-72
2022/09/14 06:18:39;;;;;;;8.27;2.10;;;14.30;99.90;;;;;;5077352;28;20089;-71
2022/09/14 06:21:06;;;;;;;4.70;2.20;;;14.30;99.90;;;;;;5084299;28;20067;-70
2022/09/14 06:23:33;;;;;;;3.92;1.88;;;14.40;99.90;;;;;;5080571;28;20080;-71
2022/09/14 06:26:00;;;;;;;4.05;1.80;;;14.40;99.90;;;;;;5082625;28;20044;-70
2022/09/14 06:28:27;;;;;;;5.88;1.92;;;14.40;99.90;;;;;;5026530;28;20097;-71
2022/09/14 06:30:53;;;;;;;5.40;2.10;;;14.50;99.90;;;;;;5064588;28;20464;-71
2022/09/14 06:33:19;;;;;;;5.53;1.70;;;14.50;99.90;;;;;;5069733;28;20048;-71
2022/09/14 06:36:03;;;;;;;5.05;1.90;;;14.60;99.90;;;;;;5068777;28;20476;-70
2022/09/14 06:38:29;;;;;;;6.60;2.55;;;14.60;99.90;;;;;;5048958;28;20040;-71
2022/09/14 06:40:56;;;;;;;5.18;2.28;;;14.60;99.90;;;;;;5065752;28;20114;-71
2022/09/14 06:43:28;;;;;;;5.15;2.22;;;14.60;99.90;;;;;;5046964;28;20044;-71
2022/09/14 06:46:03;;;;;;;6.22;1.80;;;14.60;99.90;;;;;;5062584;28;20101;-71
2022/09/14 06:48:32;;;;;;;4.07;1.90;;;14.60;99.90;;;;;;5049843;28;20109;-71
2022/09/14 06:50:58;;;;;;;4.60;2.10;;;14.70;99.90;;;;;;5065041;28;20052;-69
2022/09/14 06:53:24;;;;;;;7.05;2.40;;;14.70;99.90;;;;;;5064606;28;20042;-69
2022/09/14 06:55:51;;;;;;;6.78;2.08;;;14.80;99.90;;;;;;5064246;28;20080;-69
2022/09/14 06:58:17;;;;;;;6.45;2.17;;;14.80;99.90;;;;;;5048982;28;20119;-68
2022/09/14 07:00:42;;;;;;;9.70;2.28;;;14.90;99.90;;;;;;5065568;28;20065;-68
2022/09/14 07:03:08;;;;;;;4.25;2.40;;;14.90;99.90;;;;;;5065487;28;20053;-68
2022/09/14 07:05:34;;;;;;;5.38;2.53;;;14.90;99.90;;;;;;5066460;28;20126;-68
2022/09/14 07:08:01;;;;;;;6.97;2.50;;;15.00;99.90;;;;;;5052734;28;20047;-68
2022/09/14 07:10:27;;;;;;;10.63;2.08;;;15.00;99.90;;;;;;5068196;28;20105;-68
2022/09/14 07:12:58;;;;;;;5.60;1.88;;;15.10;99.90;;;;;;5065544;28;20111;-69
2022/09/14 07:15:24;;;;;;;6.88;2.10;;;15.10;99.90;;;;;;5068900;28;20127;-69
2022/09/14 07:17:50;;;;;;;9.57;2.38;;;15.10;99.90;;;;;;5052500;28;20044;-69
2022/09/14 07:20:16;;;;;;;9.35;1.70;;;15.20;99.90;;;;;;5068918;28;20083;-68
2022/09/14 07:22:42;;;;;;;7.68;1.90;;;15.20;99.90;;;;;;5068242;28;20048;-68
2022/09/14 07:25:08;;;;;;;5.78;1.77;;;15.30;99.90;;;;;;5069572;28;20045;-69
2022/09/14 07:27:37;;;;;;;4.85;2.05;;;15.30;99.90;;;;;;5057179;28;20396;-68
2022/09/14 07:30:04;;;;;;;4.78;1.42;;;15.30;99.90;;;;;;5071384;28;20323;-69
2022/09/14 07:32:29;;;;;;;5.18;1.40;;;15.40;99.90;;;;;;5074026;28;20131;-69
2022/09/14 07:34:55;;;;;;;5.18;1.15;;;15.40;99.90;;;;;;5072497;28;20166;-69
2022/09/14 07:37:21;;;;;;;8.27;1.40;;;15.50;99.90;;;;;;5052750;28;20048;-69
2022/09/14 07:39:46;;;;;;;5.72;1.30;;;15.50;99.90;;;;;;5068765;28;20056;-69
2022/09/14 07:42:12;;;;;;;6.20;1.27;;;15.60;99.90;;;;;;5069815;28;20075;-69
2022/09/14 07:44:39;;;;;;;5.05;1.33;;;15.60;99.90;;;;;;5067997;28;20102;-69
2022/09/14 07:47:04;;;;;;;6.38;1.45;;;15.60;99.90;;;;;;5050210;28;20033;-67
2022/09/14 07:49:30;;;;;;;5.50;1.60;;;15.70;99.90;;;;;;5063991;28;20549;-69
2022/09/14 07:51:56;;;;;;;7.47;1.13;;;15.70;99.90;;;;;;5048071;28;20047;-69
2022/09/14 07:54:22;;;;;;;3.03;1.10;;;15.80;99.90;;;;;;5069235;28;20102;-69
2022/09/14 07:56:49;;;;;;;7.05;1.48;;;15.90;99.90;;;;;;5053273;28;20075;-69
2022/09/14 07:59:15;;;;;;;6.82;1.40;;;15.80;99.90;;;;;;5067984;28;20049;-69
2022/09/14 08:01:40;;;;;;;4.32;1.20;;;15.90;99.90;;;;;;5068326;28;20063;-69
2022/09/14 08:04:07;;;;;;;5.90;1.13;;;16.00;99.90;;;;;;5060318;28;20052;-69
2022/09/14 08:06:33;;;;;;;9.88;1.45;;;16.10;99.90;;;;;;5050013;28;20052;-69
2022/09/14 08:08:59;;;;;;;3.90;1.10;;;16.20;99.90;;;;;;5062194;28;20054;-69
2022/09/14 08:11:27;;;;;;;4.28;0.95;;;16.40;99.90;;;;;;5061748;28;20431;-69
2022/09/14 08:13:58;;;;;;;3.83;0.80;;;16.40;99.90;;;;;;5061655;28;20079;-69
2022/09/14 08:16:25;;;;;;;6.18;0.80;;;16.40;99.90;;;;;;5054889;28;20063;-69
2022/09/14 08:19:00;;;;;;;6.80;1.48;;;16.50;99.90;;;;;;5060338;28;20045;-69
2022/09/14 08:21:28;;;;;;;6.25;1.23;;;16.60;99.90;;;;;;5064521;28;20542;-69
2022/09/14 08:23:54;;;;;;;4.53;0.85;;;16.60;99.90;;;;;;5056808;28;20554;-69
2022/09/14 08:26:21;;;;;;;8.48;1.60;;;16.60;99.90;;;;;;5043539;28;20032;-69
2022/09/14 08:28:48;;;;;;;13.27;1.30;;;16.70;99.90;;;;;;5039392;28;20053;-70
2022/09/14 08:31:17;;;;;;;9.20;1.00;;;16.70;99.90;;;;;;5044860;28;20049;-69
2022/09/14 08:33:45;;;;;;;6.78;0.82;;;16.80;99.90;;;;;;5044461;28;20045;-69
2022/09/14 08:36:14;;;;;;;5.95;0.98;;;16.90;99.90;;;;;;5044115;28;20141;-68
2022/09/14 08:38:39;;;;;;;9.05;0.80;;;17.10;99.90;;;;;;5044540;28;20045;-69
2022/09/14 08:41:16;;;;;;;6.47;1.20;;;17.30;99.90;;;;;;5049579;28;20071;-69
2022/09/14 08:43:41;;;;;;;3.75;0.80;;;17.30;99.90;;;;;;5048052;28;20052;-69
2022/09/14 08:46:29;;;;;;;7.95;1.00;;;17.20;99.90;;;;;;5048343;28;20427;-70
2022/09/14 08:48:55;;;;;;;8.10;1.23;;;17.30;99.90;;;;;;5013492;28;20051;-69
2022/09/14 08:51:21;;;;;;;3.65;0.70;;;17.40;99.90;;;;;;5043137;28;20045;-69
2022/09/14 08:53:51;;;;;;;4.15;0.90;;;17.50;99.90;;;;;;5046692;28;20045;-69
2022/09/14 08:56:21;;;;;;;6.15;0.77;;;17.50;99.90;;;;;;5036579;28;20041;-70
2022/09/14 08:58:53;;;;;;;7.88;1.20;;;17.50;99.90;;;;;;5042502;28;20132;-69
2022/09/14 09:01:36;;;;;;;4.80;0.82;;;17.60;99.90;;;;;;5049686;28;20049;-69
2022/09/14 09:04:04;;;;;;;7.93;1.13;;;17.60;99.90;;;;;;5050974;28;20134;-69
2022/09/14 09:06:59;;;;;;;3.67;0.82;;;17.50;99.90;;;;;;5043908;28;20040;-70
2022/09/14 09:09:40;;;;;;;7.15;0.88;;;17.40;99.90;;;;;;5043517;28;20052;-69
2022/09/14 09:12:11;;;;;;;5.45;0.77;;;17.50;99.90;;;;;;5043127;28;20057;-68
2022/09/14 09:14:52;;;;;;;7.28;0.93;;;17.40;99.90;;;;;;5040955;28;20551;-69
2022/09/14 09:17:29;;;;;;;4.50;0.80;;;17.50;99.90;;;;;;5026896;28;20526;-69
2022/09/14 09:20:08;;;;;;;4.95;0.65;;;17.40;99.90;;;;;;5042914;28;20132;-69
2022/09/14 09:22:43;;;;;;;5.40;0.80;;;17.40;99.90;;;;;;5044258;28;20040;-69
2022/09/14 09:25:21;;;;;;;4.70;0.57;;;17.50;99.90;;;;;;5043596;28;20087;-69
2022/09/14 09:27:48;;;;;;;8.50;0.98;;;17.50;99.90;;;;;;5027945;28;20399;-69
2022/09/14 09:30:14;;;;;;;3.72;0.75;;;17.60;99.90;;;;;;5042174;28;20426;-69
2022/09/14 09:32:41;;;;;;;4.28;1.15;;;17.60;99.90;;;;;;5043303;28;20056;-69
2022/09/14 09:35:07;;;;;;;5.32;0.82;;;17.60;99.90;;;;;;5044002;28;20037;-69
2022/09/14 09:37:37;;;;;;;7.97;0.90;;;17.60;99.90;;;;;;5025840;28;20082;-69
2022/09/14 09:40:14;;;;;;;4.80;0.75;;;17.60;99.90;;;;;;5042736;28;20065;-69
2022/09/14 09:43:18;;;;;;;4.60;1.10;;;17.60;99.90;;;;;;5043842;28;20049;-69
2022/09/14 09:45:54;;;;;;;5.50;0.75;;;17.70;99.90;;;;;;5048071;28;20544;-69
2022/09/14 09:48:24;;;;;;;7.68;1.13;;;17.70;99.90;;;;;;5028564;28;20416;-68
2022/09/14 09:51:17;;;;;;;5.80;0.80;;;17.70;99.90;;;;;;5048017;28;20083;-68
2022/09/14 09:54:11;;;;;;;7.85;1.23;;;17.80;99.90;;;;;;5044184;28;20330;-69
2022/09/14 09:56:49;;;;;;;5.88;1.02;;;17.70;99.90;;;;;;5001558;28;20049;-69
2022/09/14 09:59:36;;;;;;;4.78;0.80;;;17.80;99.90;;;;;;5045083;28;20046;-69
2022/09/14 10:02:25;;;;;;;5.70;1.08;;;17.80;99.90;;;;;;5041961;28;20132;-69
2022/09/14 10:05:09;;;;;;;8.65;1.00;;;17.90;99.90;;;;;;5047604;28;20120;-69
2022/09/14 10:07:59;;;;;;;6.63;1.00;;;17.90;99.90;;;;;;5033092;28;20053;-69
2022/09/14 10:10:41;;;;;;;4.97;0.95;;;18.00;99.90;;;;;;5048363;28;20906;-69
2022/09/14 10:13:31;;;;;;;9.48;1.13;;;18.00;99.90;;;;;;5049821;28;20049;-69
2022/09/14 10:16:17;;;;;;;7.88;1.00;;;18.10;99.90;;;;;;5050610;28;20045;-69
2022/09/14 10:18:48;;;;;;;6.47;1.20;;;18.10;99.90;;;;;;5042881;28;20041;-68
2022/09/14 10:21:15;;;;;;;;;;;18.10;99.90;;;;;;5050881;28;20109;-69
2022/09/14 10:23:41;;;;;;;5.32;0.82;;;18.10;99.90;;;;;;5048179;28;20368;-69
2022/09/14 10:26:13;;;;;;;7.47;0.93;;;18.00;99.90;;;;;;5047119;28;20500;-69
2022/09/14 10:28:49;;;;;;;6.60;1.00;;;17.90;99.90;;;;;;5042968;28;20053;-69
2022/09/14 10:31:18;;;;;;;6.45;0.70;;;17.80;99.90;;;;;;5048181;28;20086;-69
2022/09/14 10:33:45;;;;;;;4.70;0.77;;;18.00;99.90;;;;;;5049753;28;20044;-68
2022/09/14 10:36:13;;;;;;;2.13;0.63;;;17.90;99.90;;;;;;5045402;28;20047;-69
2022/09/14 10:39:15;;;;;;;6.00;0.73;;;18.00;99.90;;;;;;5042762;28;20041;-69
2022/09/14 10:42:00;;;;;;;;;;;18.00;99.90;;;;;;5049717;28;20127;-68
2022/09/14 10:44:34;;;;;;;6.60;1.08;;;18.10;99.90;;;;;;5048960;28;19928;-69
2022/09/14 10:47:15;;;;;;;3.80;0.70;;;18.10;99.90;;;;;;5039508;28;20122;-68
2022/09/14 10:50:00;;;;;;;5.68;1.27;;;18.10;99.90;;;;;;5072672;28;20490;-69
2022/09/14 10:52:40;;;;;;;7.63;1.00;;;18.10;99.90;;;;;;5072112;28;20044;-67
2022/09/14 10:55:41;;;;;;;6.22;0.80;;;18.10;99.90;;;;;;5075515;28;20109;-69
2022/09/14 10:58:33;;;;;;;5.13;1.00;;;18.20;99.90;;;;;;5058680;28;20445;-69
2022/09/14 11:01:29;;;;;;;6.57;0.70;;;18.10;99.90;;;;;;5071976;28;20048;-69
2022/09/14 11:04:06;;;;;;;6.25;0.90;;;18.20;99.90;;;;;;5071114;28;20095;-69
2022/09/14 11:06:41;;;;;;;4.63;0.75;;;18.10;99.90;;;;;;5057471;28;20514;-69
2022/09/14 11:09:18;;;;;;;4.25;0.75;;;18.30;99.90;;;;;;5074268;28;21268;-68
2022/09/14 11:11:53;;;;;;;3.13;0.60;;;18.30;99.90;;;;;;5073746;28;20063;-69
2022/09/14 11:14:24;;;;;;;5.22;1.10;;;18.40;99.90;;;;;;5074531;28;20082;-69
2022/09/14 11:17:04;;;;;;;7.30;0.82;;;18.50;99.90;;;;;;5062935;28;20052;-69
2022/09/14 11:19:58;;;;;;;3.95;0.65;;;18.40;99.90;;;;;;5076796;28;20142;-68
2022/09/14 11:22:23;;;;;;;5.47;1.10;;;18.50;99.90;;;;;;5078329;28;20408;-69
2022/09/14 11:25:02;;;;;;;3.70;0.50;;;18.40;99.90;;;;;;5078422;28;20453;-69
2022/09/14 11:27:58;;;;;;;5.22;0.95;;;18.50;99.90;;;;;;5056556;28;20056;-68
2022/09/14 11:30:41;;;;;;;4.68;0.90;;;18.40;99.90;;;;;;5072680;28;20411;-69
2022/09/14 11:33:21;;;;;;;4.53;0.70;;;18.40;99.90;;;;;;5064442;28;20507;-71
2022/09/14 11:36:00;;;;;;;6.60;0.95;;;18.40;99.90;;;;;;5066733;28;20083;-70
2022/09/14 11:38:34;;;;;;;4.60;0.82;;;18.40;99.90;;;;;;5054698;28;20456;-71
2022/09/14 11:41:18;;;;;;;5.97;1.00;;;18.50;99.90;;;;;;5077000;28;20052;-71
2022/09/14 11:43:58;;;;;;;4.63;0.80;;;18.60;99.90;;;;;;5077032;28;20147;-71
2022/09/14 11:46:35;;;;;;;5.20;1.10;;;18.70;99.90;;;;;;5060546;28;20047;-71
2022/09/14 11:49:28;;;;;;;4.40;0.85;;;18.80;99.90;;;;;;5075506;28;20040;-71
2022/09/14 11:52:20;;;;;;;10.07;1.00;;;18.80;99.90;;;;;;5076178;28;20051;-72
2022/09/14 11:54:47;;;;;;;7.07;1.27;;;18.80;99.90;;;;;;5075419;28;20072;-71
2022/09/14 11:57:18;;;;;;;5.63;1.00;;;18.80;99.90;;;;;;5058132;28;20127;-71
2022/09/14 12:00:11;;;;;;;5.38;0.70;;;19.00;99.90;;;;;;5077448;28;20048;-71
2022/09/14 12:02:36;;;;;;;5.68;1.10;;;19.10;99.90;;;;;;5048144;28;20185;-71
2022/09/14 12:05:05;;;;;;;2.75;0.63;;;19.00;99.90;;;;;;5074183;28;20039;-71
2022/09/14 12:07:46;;;;;;;7.88;0.98;;;19.10;99.90;;;;;;5060462;28;20048;-70
2022/09/14 12:10:15;;;;;;;3.83;0.63;;;19.10;99.90;;;;;;5078153;28;20139;-70
2022/09/14 12:13:04;;;;;;;8.80;0.73;;;19.10;99.90;;;;;;5072367;28;20044;-72
2022/09/14 12:15:36;;;;;;;6.70;0.95;;;19.20;99.90;;;;;;5074320;28;20131;-71
2022/09/14 12:18:05;;;;;;;5.20;0.68;;;19.20;99.90;;;;;;5060776;28;20044;-71
2022/09/14 12:20:41;;;;;;;6.05;0.90;;;19.00;99.90;;;;;;5076128;28;20056;-71
2022/09/14 12:23:28;;;;;;;7.78;0.60;;;19.10;99.90;;;;;;5076582;28;20048;-71
2022/09/14 12:25:56;;;;;;;6.18;0.80;;;19.10;99.90;;;;;;5074880;28;20273;-71
2022/09/14 12:28:39;;;;;;;6.38;1.15;;;18.90;99.90;;;;;;5054737;28;20044;-71
2022/09/14 12:31:04;;;;;;;5.68;1.02;;;19.10;99.90;;;;;;5077368;28;20135;-71
2022/09/14 12:33:33;;;;;;;6.97;1.00;;;19.10;99.90;;;;;;5072594;28;20044;-71
2022/09/14 12:36:21;;;;;;;5.13;0.80;;;19.00;99.90;;;;;;5076282;28;20044;-71
2022/09/14 12:38:53;;;;;;;4.82;1.08;;;19.10;99.90;;;;;;5042996;28;20139;-72
2022/09/14 12:41:19;;;;;;;5.53;0.80;;;19.10;99.90;;;;;;5072653;28;20063;-71
2022/09/14 12:43:48;;;;;;;5.50;1.13;;;19.10;99.90;;;;;;5073276;28;20287;-71
2022/09/14 12:46:19;;;;;;;5.45;0.85;;;19.10;99.90;;;;;;5068495;28;20039;-71
2022/09/14 12:48:48;;;;;;;3.28;0.75;;;19.00;99.90;;;;;;5072047;28;20439;-71
2022/09/14 12:51:26;;;;;;;5.78;1.00;;;19.00;99.90;;;;;;5076680;28;20044;-71
2022/09/14 12:53:58;;;;;;;6.25;0.82;;;19.00;99.90;;;;;;5075536;28;20503;-71
2022/09/14 12:56:30;;;;;;;6.55;1.00;;;18.90;99.90;;;;;;5060614;28;20128;-71
2022/09/14 12:59:11;;;;;;;8.07;1.00;;;18.90;99.90;;;;;;5072942;28;20052;-70
2022/09/14 13:01:47;;;;;;;;;;;18.90;99.90;;;;;;5075296;28;20056;-71
2022/09/14 13:04:24;;;;;;;6.68;1.00;;;18.80;99.90;;;;;;5073739;28;19981;-71
2022/09/14 13:06:52;;;;;;;6.35;0.90;;;18.80;99.90;;;;;;5055890;28;20521;-71
2022/09/14 13:09:25;;;;;;;5.32;0.73;;;18.80;99.90;;;;;;5070654;28;20051;-71
2022/09/14 13:12:04;;;;;;;5.55;1.13;;;18.70;99.90;;;;;;5072564;28;20052;-70